Domov               UVHVVR             MKGP            O straneh              
ZDRAVSTVENO VARSTVO RASTLIN
  MREŽA AGROMET. POSTAJ
 ► PROGNOSTIČNA OBVESTILA
AGROMETEOROLOŠKI PODATKI -
ARSO
OBVLADOVANJE TVEGANJ ZARADI
NEUGODNIH VREMENSKIH RAZMER
  ► NARAVNE NESREČE
  ► SUŠA/MOČA
  ► NAMAKANJE
  ► ŽLED (gozdarstvo)
KARTOGRAFSKI PRIKAZI
SPLETNE POVEZAVE
PROJEKTI IN PUBLIKACIJE

AGROMETEOROLOŠKA MREŽA: VREMENSKE POSTAJE IN FENOLOŠKA OPAZOVANJA

Pregled podatkov za lokacijo Maribor - BTŠ, meteorološka postaja 35810

Pregled senzorjev na lokaciji

ID Ime Zadnja
vrednost
Datum in čas
zadnje
spremembe
(Lokalni čas)
Tip
senzorja
4297 Omočenost lista (U) 0 U 19.6.2019 13:00 A730WET
1723 Padavine (mm) 0 mm 19.6.2019 13:00 Generic 0.2 mm
1722 Relativna vlaga 2 m (% RH) 53.14 % RH 19.6.2019 13:00 Generic 0 - 100 %
1721 Temperatura 2 m (°C) 28.16 °C 19.6.2019 13:00 Generic -40 - +60 °C
4296 Smer vetra (°) 107.69 ° 19.6.2019 13:00 Generic 0 - 360
4295 Hitrost vetra (km/h) 2.93 km/h 19.6.2019 13:00 Generic 100 km/h

Pregled podatkov zadnjih 24 ur

Zap.
št.
Datum in čas
(Centralno
evropski čas)
Maribor - BTŠ
Omočenost
lista
Padavine Relativna
vlaga
2
m
Temperatura
2
m
Smer
vetra
Hitrost
vetra
1 19.6.2019 13:00
2 19.6.2019 12:30
3 19.6.2019 12:00 0 0 53.1 28.2 107.7 2.9
4 19.6.2019 11:30 0 0 54.9 27.7 104 2.3
5 19.6.2019 11:00 0 0 57.8 27.6 110.4 2
6 19.6.2019 10:30 0 0 59.9 26.9 63.4 2
7 19.6.2019 10:00 0 0 63.3 26.6 57.1 1.7
8 19.6.2019 09:30 0 0 62.4 25.9 339 1.5
9 19.6.2019 09:00 0 0 64.3 24.8 118.7 1.3
10 19.6.2019 08:30 0 0 66.4 24 127.1 1.5
11 19.6.2019 08:00 0 0 66.8 23 31.1 1.4
12 19.6.2019 07:30 3 0 73.3 21.3 359.6 1.1
13 19.6.2019 07:00 10 0 80.6 19.6 329.9 1.6
14 19.6.2019 06:30 10 0 85 18.3 293.4 2.5
15 19.6.2019 06:00 10 0 86.3 17.7 288.7 2.9
16 19.6.2019 05:30 10 0 88 17.1 282 3
17 19.6.2019 05:00 10 0 89 16.8 254.6 2.8
18 19.6.2019 04:30 10 0 89.2 16.7 313.3 2
19 19.6.2019 04:00 10 0 88.5 16.9 270.4 2.6
20 19.6.2019 03:30 10 0 90.1 16.6 275.3 2.2
21 19.6.2019 03:00 10 0 92 16.1 287.3 1.7
22 19.6.2019 02:30 10 0 89.5 16.7 293.5 1
23 19.6.2019 02:00 10 0 86 17.9 219.8 2.3
24 19.6.2019 01:30 10 0 87.9 17.6 291.4 2.4
25 19.6.2019 01:00 10 0 88 17.7 257.8 2
26 19.6.2019 00:30 10 0 89 17.7 275.7 1.9
27 19.6.2019 00:00 10 0 90 17.5 258.2 1.5
28 18.6.2019 23:30 10 0 91 17.5 238.7 1.5
29 18.6.2019 23:00 10 0 93.2 17 250.9 0.6
30 18.6.2019 22:30 10 0 92.4 17.4 259 1
31 18.6.2019 22:00 10 0 91.1 17.7 270.4 0.2
32 18.6.2019 21:30 6 0 88.6 18.5 258.7 1.2
33 18.6.2019 21:00 1 0 85.1 19.3 283.9 0.4
34 18.6.2019 20:30 0 0 78.7 20.4 81.2 0.5
35 18.6.2019 20:00 0 0 69.6 22.1 78.2 0.5
36 18.6.2019 19:30 0 0 65.7 23.6 57.4 1
37 18.6.2019 19:00 0 0 63.2 24.4 239.5 1.2
38 18.6.2019 18:30 0 0 65.7 24.3 46 1.4
39 18.6.2019 18:00 0 0 65.8 24.6 38.7 1.4
40 18.6.2019 17:30 0 0 63.8 25.4 102.3 1.9
41 18.6.2019 17:00 0 0 57.4 26.5 123.3 1.4
42 18.6.2019 16:30 0 0 57.8 26.1 114.5 2.7
43 18.6.2019 16:00 0 0 59.3 26.5 155.8 2
44 18.6.2019 15:30 0 0 56.8 26.7 97.4 1.3
45 18.6.2019 15:00 0 0 59 26.1 142.2 1.1
46 18.6.2019 14:30 0 0 59.8 26.2 117.5 1.4
47 18.6.2019 14:00 0 0 60.9 26.2 129.2 1.7
48 18.6.2019 13:30 0 0 61.1 26.4 10.9 1.8
© 2011 Ministrstvo za kmetijstvo, gozdarstvo in prehrano. Vse pravice pridržane.